| time (UTC) | temp C | wind direction | speed KPH | gust KPH | rain 1hr cm | rain 24hr cm | rain mn cm | humidity % | barometer mb |
| 20260506215630 | 13 | 62 | 0.0 | 0.0 | 0.00 | 3.40 | 3.40 | 65 | 1010.4 |
| 20260506215128 | 13 | 62 | 0.0 | 0.0 | 0.00 | 3.40 | 3.40 | 65 | 1010.4 |
| 20260506214628 | 13 | 63 | 0.0 | 0.0 | 0.00 | 3.40 | 3.40 | 65 | 1010.4 |
| 20260506214126 | 13 | 102 | 0.0 | 3.2 | 0.00 | 3.40 | 3.40 | 65 | 1010.5 |
| 20260506213625 | 13 | 248 | 0.0 | 6.4 | 0.00 | 3.40 | 3.40 | 65 | 1010.5 |
| 20260506213325 | 14 | 217 | 0.0 | 8.0 | 0.00 | 3.40 | 3.40 | 65 | 1010.4 |
| 20260506213157 | 13 | 243 | 1.6 | 6.4 | 0.00 | 3.40 | 3.40 | 65 | 1010.3 |
| 20260506212125 | 14 | 72 | 4.8 | 11.3 | 0.00 | 3.40 | 3.40 | 65 | 1010.4 |
| 20260506211622 | 14 | 87 | 6.4 | 11.3 | 0.00 | 3.43 | 3.40 | 65 | 1010.4 |
| 20260506211124 | 14 | 89 | 4.8 | 11.3 | 0.00 | 3.43 | 3.40 | 65 | 1010.5 |
| 20260506210623 | 14 | 56 | 6.4 | 14.5 | 0.00 | 3.43 | 3.40 | 65 | 1010.4 |
| 20260506210124 | 14 | 61 | 4.8 | 14.5 | 0.00 | 3.43 | 3.40 | 65 | 1010.4 |
| 20260506205622 | 14 | 86 | 4.8 | 11.3 | 0.03 | 3.43 | 3.40 | 65 | 1010.3 |
| 20260506205119 | 14 | 75 | 8.0 | 11.3 | 0.05 | 3.43 | 3.40 | 65 | 1010.3 |
| 20260506204619 | 14 | 93 | 0.0 | 9.7 | 0.05 | 3.43 | 3.40 | 65 | 1010.4 |
| 20260506204303 | 13 | 16 | 0.0 | 0.0 | 0.20 | 3.51 | 3.40 | 65 | 1010.4 |
| 20260506204144 | 13 | 17 | 0.0 | 0.0 | 0.13 | 3.45 | 3.40 | 65 | 1010.4 |
| 20260506203116 | 14 | 16 | 0.0 | 0.0 | 0.30 | 3.53 | 3.40 | 65 | 1010.4 |
| 20260506202616 | 14 | 144 | 0.0 | 0.0 | 0.36 | 3.53 | 3.40 | 65 | 1010.4 |
| 20260506202116 | 14 | 144 | 0.0 | 0.0 | 0.43 | 3.53 | 3.40 | 65 | 1010.3 |
| 20260506201615 | 13 | 142 | 0.0 | 0.0 | 0.51 | 3.61 | 3.40 | 65 | 1010.3 |
| 20260506201112 | 13 | 241 | 0.0 | 1.6 | 0.51 | 3.66 | 3.40 | 65 | 1010.3 |
| 20260506200611 | 13 | 241 | 0.0 | 1.6 | 0.56 | 3.71 | 3.40 | 65 | 1010.2 |
| 20260506200109 | 13 | 241 | 0.0 | 4.8 | 0.58 | 3.71 | 3.40 | 65 | 1010.2 |
| 20260506195608 | 13 | 241 | 1.6 | 4.8 | 0.56 | 3.15 | 3.38 | 65 | 1010.1 |
| 20260506195109 | 13 | 241 | 0.0 | 1.6 | 0.53 | 3.15 | 3.33 | 65 | 1010.0 |
| 20260506194605 | 13 | 238 | 0.0 | 11.3 | 0.51 | 3.17 | 3.33 | 65 | 1009.9 |
| 20260506194105 | 13 | 227 | 1.6 | 11.3 | 0.46 | 3.17 | 3.25 | 65 | 1009.9 |
| 20260506193606 | 13 | 275 | 8.0 | 14.5 | 0.38 | 3.23 | 3.17 | 65 | 1009.7 |
| 20260506193107 | 13 | 245 | 11.3 | 14.5 | 0.28 | 3.23 | 3.07 | 65 | 1009.9 |
| 20260506192605 | 13 | 289 | 0.0 | 0.0 | 0.23 | 3.25 | 3.02 | 65 | 1009.8 |
| 20260506192109 | 14 | 292 | 0.0 | 0.0 | 0.15 | 3.25 | 2.95 | 65 | 1009.9 |
| 20260506191603 | 14 | 344 | 0.0 | 0.0 | 0.08 | 3.28 | 2.87 | 65 | 1009.7 |
| 20260506191104 | 14 | 278 | 0.0 | 0.0 | 0.05 | 3.28 | 2.87 | 65 | 1009.6 |
| 20260506190604 | 15 | 269 | 0.0 | 0.0 | 0.03 | 3.28 | 2.82 | 65 | 1009.5 |
| 20260506190329 | 15 | 243 | 0.0 | 0.0 | 0.00 | 3.30 | 2.82 | 65 | 1009.3 |
| 20260506190136 | 15 | 243 | 0.0 | 0.0 | 0.00 | 3.30 | 2.82 | 65 | 1009.4 |
| 20260506185100 | 15 | 244 | 0.0 | 9.7 | 0.00 | 3.33 | 2.82 | 65 | 1009.4 |
| 20260506184558 | 15 | 243 | 3.2 | 11.3 | 0.00 | 3.33 | 2.82 | 65 | 1009.4 |
| 20260506184254 | 15 | 169 | 0.0 | 19.3 | 0.00 | 3.35 | 2.82 | 65 | 1009.4 |
| 20260506184122 | 15 | 234 | 8.0 | 14.5 | 0.00 | 3.35 | 2.82 | 65 | 1009.4 |
| 20260506183057 | 15 | 226 | 8.0 | 19.3 | 0.00 | 3.35 | 2.82 | 65 | 1009.3 |
| 20260506182557 | 15 | 199 | 3.2 | 9.7 | 0.00 | 3.35 | 2.82 | 65 | 1009.3 |
| 20260506182055 | 14 | 231 | 0.0 | 6.4 | 0.00 | 3.35 | 2.82 | 65 | 1009.4 |
| 20260506181554 | 14 | 233 | 4.8 | 8.0 | 0.00 | 3.38 | 2.82 | 65 | 1009.4 |
| 20260506181054 | 14 | 223 | 4.8 | 8.0 | 0.00 | 3.38 | 2.82 | 65 | 1009.4 |
| 20260506180551 | 14 | 206 | 3.2 | 9.7 | 0.03 | 3.38 | 2.82 | 65 | 1009.4 |
| 20260506180048 | 14 | 165 | 6.4 | 9.7 | 0.03 | 3.40 | 2.82 | 65 | 1009.4 |
| 20260506175550 | 14 | 189 | 4.8 | 9.7 | 0.03 | 3.38 | 2.82 | 65 | 1009.4 |
| 20260506175049 | 13 | 118 | 0.0 | 4.8 | 0.03 | 3.40 | 2.82 | 65 | 1009.3 |
| 20260506174551 | 13 | 243 | 0.0 | 0.0 | 0.03 | 3.43 | 2.82 | 65 | 1009.4 |
| 20260506174048 | 13 | 243 | 0.0 | 4.8 | 0.03 | 3.43 | 2.82 | 65 | 1009.3 |
| 20260506173548 | 13 | 243 | 0.0 | 4.8 | 0.05 | 3.43 | 2.82 | 65 | 1009.3 |
| 20260506173048 | 13 | 243 | 1.6 | 4.8 | 0.15 | 3.43 | 2.82 | 65 | 1009.1 |
| 20260506172827 | 13 | 243 | 3.2 | 6.4 | 0.18 | 3.45 | 2.82 | 66 | 1009.1 |
| 20260506172624 | 13 | 243 | 1.6 | 6.4 | 0.15 | 3.43 | 2.82 | 66 | 1009.2 |
| 20260506171542 | 13 | 244 | 4.8 | 6.4 | 0.30 | 3.45 | 2.82 | 66 | 1009.1 |
| 20260506171037 | 13 | 244 | 3.2 | 4.8 | 0.71 | 3.48 | 2.82 | 66 | 1009.1 |
| 20260506170534 | 13 | 244 | 1.6 | 3.2 | 0.74 | 3.48 | 2.79 | 66 | 1008.9 |
| 20260506170040 | 13 | 244 | 3.2 | 8.0 | 0.76 | 3.51 | 2.79 | 66 | 1008.9 |
| 20260506165925 | 13 | 276 | 3.2 | 16.1 | 0.79 | 2.72 | 2.79 | 66 | 1008.8 |
| 20260506165913 | 13 | 241 | 8.0 | 17.7 | 0.84 | 2.72 | 2.79 | 66 | 1009.0 |
| 20260506165637 | 13 | 245 | 1.6 | 9.7 | 0.79 | 2.72 | 2.79 | 66 | 1009.0 |
| 20260506164029 | 13 | 252 | 8.0 | 20.9 | 0.86 | 2.72 | 2.79 | 66 | 1008.9 |
| 20260506163531 | 13 | 255 | 14.5 | 20.9 | 0.94 | 2.74 | 2.77 | 66 | 1009.0 |
| 20260506163032 | 13 | 221 | 9.7 | 27.4 | 0.91 | 2.74 | 2.67 | 67 | 1008.9 |
| 20260506162525 | 13 | 220 | 8.0 | 27.4 | 0.94 | 2.74 | 2.67 | 67 | 1009.0 |
| 20260506162201 | 15 | 278 | 9.7 | 11.3 | 0.79 | 2.74 | 2.41 | 66 | 1008.9 |
| 20260506162051 | 13 | 319 | 3.2 | 11.3 | 0.94 | 2.74 | 2.64 | 68 | 1008.8 |
| 20260506161023 | 15 | 180 | 6.4 | 16.1 | 0.43 | 2.74 | 2.11 | 65 | 1009.0 |
| 20260506160521 | 15 | 168 | 6.4 | 16.1 | 0.38 | 2.74 | 2.06 | 66 | 1008.8 |
| 20260506160022 | 15 | 230 | 6.4 | 11.3 | 0.33 | 2.74 | 2.03 | 66 | 1008.9 |
| 20260506155521 | 15 | 175 | 6.4 | 11.3 | 0.33 | 2.39 | 2.03 | 66 | 1008.8 |
| 20260506155025 | 15 | 147 | 4.8 | 8.0 | 0.33 | 2.39 | 2.01 | 66 | 1009.0 |
| 20260506154706 | 15 | 254 | 1.6 | 16.1 | 0.25 | 2.39 | 1.93 | 66 | 1008.8 |
| 20260506154540 | 15 | 254 | 1.6 | 16.1 | 0.28 | 2.39 | 1.96 | 66 | 1008.9 |
| 20260506153519 | 15 | 76 | 6.4 | 16.1 | 0.15 | 2.39 | 1.80 | 66 | 1008.9 |
| 20260506153020 | 15 | 125 | 6.4 | 16.1 | 0.05 | 2.39 | 1.75 | 66 | 1009.0 |
| 20260506152520 | 15 | 93 | 3.2 | 16.1 | 0.05 | 2.39 | 1.73 | 66 | 1008.9 |
| 20260506152021 | 15 | 38 | 9.7 | 17.7 | 0.03 | 2.39 | 1.70 | 66 | 1008.9 |
| 20260506151519 | 15 | 152 | 4.8 | 17.7 | 0.00 | 2.41 | 1.70 | 66 | 1009.1 |
| 20260506151015 | 15 | 100 | 9.7 | 16.1 | 0.00 | 2.41 | 1.68 | 66 | 1009.0 |
| 20260506150643 | 15 | 59 | 8.0 | 16.1 | 0.00 | 2.41 | 1.68 | 66 | 1009.0 |
| 20260506150536 | 15 | 80 | 6.4 | 16.1 | 0.00 | 2.41 | 1.68 | 66 | 1009.0 |
| 20260506145509 | 15 | 149 | 1.6 | 6.4 | 0.00 | 2.44 | 1.68 | 66 | 1009.1 |
| 20260506145011 | 15 | 152 | 0.0 | 9.7 | 0.03 | 2.49 | 1.68 | 65 | 1009.2 |
| 20260506144721 | 15 | 71 | 3.2 | 9.7 | 0.05 | 2.59 | 1.68 | 66 | 1009.3 |
| 20260506144539 | 15 | 152 | 3.2 | 9.7 | 0.05 | 2.51 | 1.68 | 66 | 1009.2 |
| 20260506143507 | 15 | 319 | 1.6 | 9.7 | 0.05 | 2.64 | 1.68 | 66 | 1009.4 |
| 20260506143008 | 15 | 220 | 1.6 | 14.5 | 0.05 | 2.64 | 1.68 | 66 | 1009.5 |
| 20260506142714 | 15 | 110 | 6.4 | 16.1 | 0.13 | 2.67 | 1.68 | 65 | 1009.4 |
| 20260506142544 | 15 | 107 | 6.4 | 14.5 | 0.10 | 2.64 | 1.68 | 66 | 1009.5 |
| 20260506141428 | 15 | 212 | 9.7 | 17.7 | 0.61 | 2.67 | 1.68 | 65 | 1009.5 |
| 20260506140551 | 15 | 193 | 9.7 | 14.5 | 0.79 | 2.67 | 1.68 | 66 | 1009.6 |
| 20260506140250 | 14 | 214 | 3.2 | 9.7 | 0.94 | 1.80 | 1.65 | 66 | 1009.6 |
| 20260506140116 | 15 | 224 | 4.8 | 9.7 | 0.86 | 2.69 | 1.68 | 66 | 1009.6 |
| 20260506135049 | 14 | 186 | 3.2 | 14.5 | 0.94 | 1.80 | 1.65 | 66 | 1009.7 |
| 20260506134551 | 14 | 190 | 4.8 | 14.5 | 0.91 | 1.83 | 1.65 | 66 | 1009.7 |
| 20260506134047 | 14 | 130 | 4.8 | 16.1 | 0.91 | 1.83 | 1.65 | 66 | 1009.8 |
| 20260506133545 | 14 | 179 | 8.0 | 20.9 | 0.91 | 1.83 | 1.65 | 67 | 1009.8 |
| 20260506133049 | 14 | 206 | 3.2 | 20.9 | 0.89 | 1.83 | 1.63 | 67 | 1009.7 |
| 20260506132545 | 14 | 180 | 8.0 | 29.0 | 0.86 | 1.85 | 1.57 | 67 | 1009.8 |
| 20260506132045 | 14 | 216 | 9.7 | 32.2 | 0.84 | 1.88 | 1.55 | 68 | 1009.8 |
| 20260506131548 | 14 | 178 | 20.9 | 32.2 | 0.79 | 1.88 | 1.42 | 69 | 1009.9 |
| 20260506131258 | 15 | 152 | 11.3 | 16.1 | 0.18 | 1.93 | 0.89 | 69 | 1010.0 |
| 20260506131117 | 15 | 157 | 8.0 | 19.3 | 0.33 | 1.91 | 1.04 | 68 | 1009.9 |
| 20260506130043 | 15 | 165 | 8.0 | 17.7 | 0.13 | 1.93 | 0.79 | 69 | 1009.9 |
| 20260506125541 | 15 | 207 | 9.7 | 17.7 | 0.05 | 1.83 | 0.74 | 68 | 1009.8 |
| 20260506125037 | 15 | 214 | 8.0 | 17.7 | 0.03 | 1.85 | 0.71 | 68 | 1009.8 |
| 20260506124539 | 15 | 214 | 11.3 | 17.7 | 0.03 | 1.88 | 0.71 | 68 | 1009.8 |
| 20260506124040 | 15 | 188 | 11.3 | 22.5 | 0.03 | 1.88 | 0.71 | 68 | 1009.8 |
| 20260506123539 | 15 | 190 | 9.7 | 22.5 | 0.05 | 1.88 | 0.71 | 68 | 1009.7 |
| 20260506123036 | 15 | 252 | 9.7 | 19.3 | 0.05 | 1.88 | 0.71 | 68 | 1009.8 |
| 20260506122534 | 15 | 176 | 9.7 | 16.1 | 0.05 | 1.88 | 0.71 | 68 | 1009.8 |
| 20260506122035 | 15 | 186 | 4.8 | 19.3 | 0.05 | 1.88 | 0.71 | 67 | 1009.7 |
| 20260506121535 | 15 | 85 | 8.0 | 19.3 | 0.05 | 1.88 | 0.71 | 67 | 1009.7 |
| 20260506121032 | 15 | 202 | 6.4 | 14.5 | 0.05 | 1.88 | 0.71 | 67 | 1009.8 |
| 20260506120534 | 15 | 180 | 3.2 | 11.3 | 0.05 | 1.91 | 0.71 | 67 | 1009.8 |
| 20260506120038 | 15 | 241 | 1.6 | 17.7 | 0.05 | 1.91 | 0.71 | 66 | 1009.8 |
| 20260506115901 | 15 | 168 | 4.8 | 19.3 | 0.05 | 1.88 | 0.71 | 67 | 1009.8 |
| 20260506115850 | 15 | 228 | 9.7 | 19.3 | 0.05 | 1.91 | 0.71 | 67 | 1009.8 |
| 20260506115626 | 15 | 221 | 8.0 | 17.7 | 0.05 | 1.88 | 0.71 | 67 | 1009.9 |
| 20260506114033 | 15 | 209 | 8.0 | 17.7 | 0.05 | 1.93 | 0.71 | 67 | 1009.9 |
| 20260506113737 | 15 | 142 | 11.3 | 20.9 | 0.03 | 1.93 | 0.69 | 66 | 1009.8 |
| 20260506113552 | 15 | 176 | 4.8 | 20.9 | 0.03 | 1.93 | 0.69 | 66 | 1010.0 |
| 20260506112529 | 15 | 219 | 8.0 | 17.7 | 0.03 | 1.93 | 0.69 | 66 | 1009.8 |
| 20260506112029 | 15 | 159 | 8.0 | 16.1 | 0.03 | 1.93 | 0.69 | 66 | 1009.9 |
| 20260506111529 | 15 | 154 | 8.0 | 19.3 | 0.05 | 1.93 | 0.69 | 66 | 1010.0 |
| 20260506111124 | 15 | 169 | 6.4 | 14.5 | 0.05 | 1.93 | 0.69 | 65 | 1010.0 |
| 20260506111044 | 15 | 162 | 9.7 | 19.3 | 0.05 | 1.93 | 0.69 | 66 | 1010.0 |
| 20260506110026 | 15 | 164 | 3.2 | 17.7 | 0.03 | 1.93 | 0.66 | 65 | 1010.0 |
| 20260506105523 | 15 | 207 | 3.2 | 17.7 | 0.05 | 1.93 | 0.66 | 65 | 1010.0 |
| 20260506105453 | 15 | 178 | 4.8 | 11.3 | 0.08 | 1.93 | 0.66 | 65 | 1010.0 |
| 20260506105140 | 15 | 186 | 3.2 | 14.5 | 0.05 | 1.93 | 0.66 | 65 | 1010.2 |
| 20260506104533 | 15 | 148 | 6.4 | 14.5 | 0.05 | 1.93 | 0.66 | 65 | 1010.2 |
| 20260506103510 | 15 | 86 | 1.6 | 11.3 | 0.08 | 1.93 | 0.66 | 65 | 1010.1 |
| 20260506103008 | 15 | 168 | 6.4 | 11.3 | 0.10 | 1.93 | 0.66 | 65 | 1010.2 |
| 20260506102504 | 15 | 158 | 3.2 | 8.0 | 0.10 | 1.93 | 0.66 | 65 | 1010.2 |
| 20260506102005 | 15 | 337 | 1.6 | 6.4 | 0.10 | 1.93 | 0.64 | 65 | 1010.2 |
| 20260506101505 | 15 | 154 | 1.6 | 9.7 | 0.10 | 1.93 | 0.64 | 65 | 1010.3 |
| 20260506101001 | 15 | 110 | 3.2 | 11.3 | 0.10 | 1.93 | 0.64 | 65 | 1010.4 |
| 20260506100633 | 15 | 82 | 3.2 | 9.7 | 0.13 | 1.80 | 0.61 | 65 | 1010.5 |
| 20260506100521 | 15 | 226 | 3.2 | 11.3 | 0.13 | 1.93 | 0.64 | 65 | 1010.6 |
| 20260506095457 | 14 | 196 | 1.6 | 8.0 | 0.10 | 1.80 | 0.61 | 65 | 1010.6 |
| 20260506094952 | 14 | 137 | 1.6 | 9.7 | 0.08 | 1.80 | 0.61 | 65 | 1010.6 |
| 20260506094506 | 14 | 235 | 3.2 | 9.7 | 0.08 | 1.80 | 0.61 | 65 | 1010.6 |
| 20260506093948 | 14 | 134 | 1.6 | 8.0 | 0.05 | 1.80 | 0.58 | 65 | 1010.6 |
| 20260506093450 | 14 | 158 | 3.2 | 8.0 | 0.05 | 1.80 | 0.56 | 65 | 1010.6 |
| 20260506092951 | 14 | 107 | 0.0 | 4.8 | 0.05 | 1.80 | 0.56 | 65 | 1010.6 |
| 20260506092444 | 14 | 107 | 0.0 | 8.0 | 0.05 | 1.80 | 0.56 | 65 | 1010.6 |
| 20260506091942 | 14 | 107 | 3.2 | 9.7 | 0.03 | 1.80 | 0.53 | 65 | 1010.6 |
| 20260506091935 | 14 | 109 | 4.8 | 16.1 | 0.00 | 1.80 | 0.51 | 65 | 1010.6 |
| 20260506091558 | 14 | 90 | 6.4 | 11.3 | 0.03 | 1.80 | 0.53 | 65 | 1010.6 |
| 20260506091006 | 14 | 62 | 4.8 | 14.5 | 0.03 | 1.80 | 0.53 | 65 | 1010.6 |
| 20260506085941 | 14 | 69 | 6.4 | 17.7 | 0.00 | 1.80 | 0.51 | 65 | 1010.5 |
| 20260506085436 | 14 | 114 | 6.4 | 17.7 | 0.00 | 1.80 | 0.51 | 65 | 1010.5 |
| 20260506084935 | 14 | 79 | 8.0 | 16.1 | 0.00 | 1.80 | 0.51 | 65 | 1010.5 |
| 20260506084439 | 14 | 104 | 8.0 | 19.3 | 0.00 | 1.80 | 0.51 | 65 | 1010.5 |
| 20260506084430 | 14 | 73 | 9.7 | 17.7 | 0.03 | 1.80 | 0.51 | 65 | 1010.2 |
| 20260506084044 | 14 | 89 | 9.7 | 20.9 | 0.03 | 1.80 | 0.51 | 65 | 1010.4 |
| 20260506083501 | 14 | 107 | 11.3 | 20.9 | 0.03 | 1.80 | 0.51 | 65 | 1010.4 |
| 20260506082431 | 14 | 104 | 6.4 | 16.1 | 0.03 | 1.80 | 0.51 | 65 | 1010.2 |
| 20260506081935 | 14 | 96 | 8.0 | 14.5 | 0.03 | 1.80 | 0.51 | 65 | 1010.1 |
| 20260506081426 | 14 | 107 | 6.4 | 9.7 | 0.03 | 1.80 | 0.51 | 65 | 1010.2 |
| 20260506080925 | 14 | 58 | 4.8 | 16.1 | 0.03 | 1.80 | 0.51 | 65 | 1010.0 |
| 20260506080427 | 14 | 79 | 6.4 | 16.1 | 0.05 | 1.80 | 0.51 | 65 | 1010.2 |
| 20260506072921 | 13 | 11 | 3.2 | 6.4 | 0.33 | 1.73 | 0.51 | 66 | 1010.3 |
| 20260506072419 | 13 | 0 | 1.6 | 4.8 | 0.33 | 1.73 | 0.51 | 66 | 1010.3 |
| 20260506072122 | 13 | 0 | 3.2 | 6.4 | 0.33 | 1.73 | 0.51 | 65 | 1010.3 |
| 20260506071947 | 13 | 0 | 3.2 | 6.4 | 0.33 | 1.73 | 0.51 | 66 | 1010.4 |
| 20260506070916 | 13 | 35 | 4.8 | 6.4 | 0.33 | 1.73 | 0.48 | 66 | 1010.3 |
| 20260506070418 | 13 | 30 | 3.2 | 6.4 | 0.33 | 1.73 | 0.48 | 66 | 1010.3 |
| 20260506062435 | 13 | 41 | 4.8 | 6.4 | 0.00 | 1.45 | 0.15 | 66 | 1010.6 |
| 20260506061820 | 13 | 71 | 0.0 | 0.0 | 0.00 | 1.45 | 0.15 | 66 | 1010.4 |
| 20260506061743 | 13 | 65 | 0.0 | 0.0 | 0.00 | 1.45 | 0.15 | 65 | 1010.4 |
| 20260506061513 | 13 | 72 | 6.4 | 8.0 | 0.00 | 1.45 | 0.15 | 66 | 1010.4 |
| 20260506050948 | 13 | 10 | 0.0 | 0.0 | 0.00 | 1.45 | 0.15 | 66 | 1010.4 |
| 20260506050719 | 13 | 10 | 0.0 | 3.2 | 0.00 | 1.45 | 0.15 | 66 | 1010.4 |
| 20260506050522 | 13 | 10 | 0.0 | 3.2 | 0.00 | 1.45 | 0.15 | 66 | 1010.5 |
| 20260506045006 | 12 | 11 | 0.0 | 0.0 | 0.00 | 1.45 | 0.15 | 66 | 1010.4 |
| 20260506043941 | 12 | 35 | 0.0 | 6.4 | 0.00 | 1.45 | 0.15 | 66 | 1010.5 |
| 20260506043601 | 12 | 0 | 4.8 | 8.0 | 0.00 | 1.45 | 0.15 | 66 | 1010.4 |
| 20260506043502 | 12 | 38 | 0.0 | 8.0 | 0.00 | 1.45 | 0.15 | 66 | 1010.3 |
| 20260506042439 | 12 | 348 | 1.6 | 3.2 | 0.00 | 1.45 | 0.15 | 66 | 1010.5 |
| 20260506041939 | 12 | 1 | 0.0 | 0.0 | 0.00 | 1.45 | 0.15 | 66 | 1010.6 |
| 20260506041439 | 12 | 1 | 0.0 | 0.0 | 0.00 | 1.45 | 0.15 | 66 | 1010.5 |
| 20260506040941 | 12 | 1 | 0.0 | 0.0 | 0.00 | 1.45 | 0.15 | 66 | 1010.6 |
| 20260506040840 | 12 | 1 | 0.0 | 0.0 | 0.00 | 1.45 | 0.15 | 66 | 1010.8 |
| 20260506040540 | 12 | 1 | 0.0 | 0.0 | 0.00 | 1.45 | 0.15 | 66 | 1010.8 |
| 20260506040001 | 12 | 1 | 0.0 | 0.0 | 0.00 | 1.45 | 0.15 | 66 | 1010.8 |
| 20260506034936 | 12 | 1 | 0.0 | 0.0 | 0.00 | 1.45 | 0.15 | 66 | 1010.8 |
| 20260506034431 | 12 | 1 | 0.0 | 0.0 | 0.00 | 1.45 | 0.15 | 66 | 1010.8 |
| 20260506033932 | 12 | 1 | 0.0 | 0.0 | 0.00 | 1.45 | 0.15 | 66 | 1010.8 |
| 20260506033431 | 12 | 1 | 0.0 | 0.0 | 0.00 | 1.45 | 0.15 | 66 | 1011.0 |
| 20260506032932 | 12 | 1 | 0.0 | 0.0 | 0.00 | 1.45 | 0.15 | 66 | 1010.9 |
| 20260506032429 | 12 | 1 | 0.0 | 0.0 | 0.00 | 1.45 | 0.15 | 66 | 1010.8 |
| 20260506031929 | 12 | 1 | 0.0 | 0.0 | 0.00 | 1.45 | 0.15 | 66 | 1010.8 |
| 20260506031640 | 12 | 1 | 0.0 | 0.0 | 0.00 | 1.45 | 0.15 | 66 | 1011.0 |
| 20260506031456 | 12 | 1 | 0.0 | 0.0 | 0.00 | 1.45 | 0.15 | 66 | 1010.9 |
| 20260506030616 | 12 | 1 | 0.0 | 0.0 | 0.00 | 1.45 | 0.15 | 66 | 1010.9 |
| 20260506030450 | 12 | 1 | 0.0 | 0.0 | 0.00 | 1.45 | 0.15 | 66 | 1011.0 |
| 20260506025424 | 12 | 1 | 0.0 | 0.0 | 0.00 | 1.45 | 0.15 | 66 | 1011.0 |
| 20260506025102 | 13 | 1 | 0.0 | 0.0 | 0.00 | 1.45 | 0.15 | 66 | 1011.1 |
| 20260506024938 | 12 | 1 | 0.0 | 0.0 | 0.00 | 1.45 | 0.15 | 66 | 1011.1 |
| 20260506023923 | 13 | 1 | 0.0 | 0.0 | 0.00 | 1.45 | 0.15 | 66 | 1011.2 |
| 20260506023413 | 12 | 1 | 0.0 | 0.0 | 0.00 | 1.45 | 0.15 | 66 | 1011.2 |
| 20260506022938 | 12 | 1 | 0.0 | 0.0 | 0.00 | 1.45 | 0.15 | 66 | 1011.3 |
| 20260506022917 | 12 | 1 | 0.0 | 0.0 | 0.00 | 1.45 | 0.15 | 66 | 1011.3 |
| 20260506022549 | 12 | 1 | 0.0 | 0.0 | 0.00 | 1.45 | 0.15 | 66 | 1011.3 |
| 20260506022152 | 12 | 1 | 0.0 | 0.0 | 0.00 | 1.45 | 0.15 | 66 | 1011.3 |
| 20260506021959 | 12 | 1 | 0.0 | 0.0 | 0.00 | 1.45 | 0.15 | 66 | 1011.4 |
| 20260506020401 | 12 | 1 | 0.0 | 0.0 | 0.00 | 1.45 | 0.15 | 66 | 1011.3 |
| 20260506015859 | 12 | 1 | 0.0 | 0.0 | 0.00 | 1.45 | 0.15 | 66 | 1011.3 |
| 20260506015401 | 12 | 1 | 0.0 | 0.0 | 0.00 | 1.45 | 0.15 | 66 | 1011.4 |
| 20260506014900 | 12 | 1 | 0.0 | 0.0 | 0.00 | 1.45 | 0.15 | 66 | 1011.5 |
| 20260506014358 | 12 | 1 | 0.0 | 0.0 | 0.00 | 1.45 | 0.15 | 66 | 1011.5 |
| 20260506013858 | 13 | 1 | 0.0 | 0.0 | 0.00 | 1.45 | 0.15 | 66 | 1011.4 |
| 20260506013357 | 13 | 1 | 0.0 | 0.0 | 0.00 | 1.45 | 0.15 | 66 | 1011.3 |
| 20260506012858 | 12 | 1 | 0.0 | 4.8 | 0.00 | 1.45 | 0.15 | 66 | 1011.2 |
| 20260506012355 | 12 | 1 | 0.0 | 4.8 | 0.00 | 1.45 | 0.15 | 66 | 1011.3 |
| 20260506011850 | 12 | 1 | 1.6 | 3.2 | 0.03 | 1.45 | 0.15 | 66 | 1011.3 |
| 20260506011351 | 13 | 1 | 0.0 | 0.0 | 0.03 | 1.45 | 0.15 | 66 | 1011.3 |
| 20260506011133 | 12 | 1 | 0.0 | 0.0 | 0.15 | 1.45 | 0.15 | 66 | 1011.3 |
| 20260506010929 | 12 | 1 | 0.0 | 0.0 | 0.05 | 1.45 | 0.15 | 66 | 1011.3 |
| 20260506005847 | 12 | 1 | 0.0 | 0.0 | 0.15 | 1.27 | 0.15 | 66 | 1011.3 |
| 20260506005348 | 12 | 1 | 0.0 | 0.0 | 0.15 | 1.27 | 0.15 | 66 | 1011.3 |
| 20260506004850 | 12 | 1 | 0.0 | 0.0 | 0.15 | 1.27 | 0.15 | 66 | 1011.3 |
| 20260506004348 | 12 | 1 | 0.0 | 0.0 | 0.15 | 1.27 | 0.15 | 66 | 1011.3 |
| 20260506003848 | 12 | 1 | 0.0 | 0.0 | 0.15 | 1.27 | 0.15 | 66 | 1011.3 |
| 20260506003347 | 12 | 1 | 0.0 | 0.0 | 0.15 | 1.27 | 0.15 | 66 | 1011.4 |
| 20260506003140 | 12 | 1 | 0.0 | 0.0 | 0.15 | 1.27 | 0.15 | 66 | 1011.4 |
| 20260506002925 | 12 | 1 | 0.0 | 0.0 | 0.15 | 1.27 | 0.15 | 66 | 1011.4 |
| 20260506001842 | 12 | 1 | 0.0 | 4.8 | 0.15 | 1.27 | 0.15 | 66 | 1011.4 |
| 20260506001343 | 12 | 1 | 0.0 | 4.8 | 0.15 | 1.27 | 0.15 | 66 | 1011.5 |
| 20260506000836 | 12 | 1 | 1.6 | 3.2 | 0.08 | 1.27 | 0.05 | 66 | 1011.5 |
| 20260506000335 | 12 | 1 | 0.0 | 0.0 | 0.00 | 1.27 | 0.00 | 66 | 1011.6 |
| 20260505235834 | 12 | 1 | 0.0 | 0.0 | 0.00 | 1.27 | 0.00 | 66 | 1011.6 |
| 20260505235330 | 12 | 3 | 0.0 | 0.0 | 0.00 | 1.27 | 0.00 | 66 | 1011.7 |
| 20260505234832 | 12 | 3 | 0.0 | 0.0 | 0.00 | 1.27 | 0.00 | 66 | 1011.8 |
| 20260505234329 | 12 | 3 | 0.0 | 0.0 | 0.00 | 1.27 | 0.00 | 66 | 1011.8 |
| 20260505234052 | 12 | 1 | 0.0 | 3.2 | 0.00 | 1.27 | 0.00 | 66 | 1011.9 |
| 20260505233901 | 12 | 1 | 0.0 | 3.2 | 0.00 | 1.27 | 0.00 | 66 | 1011.9 |
| 20260505232823 | 12 | 1 | 1.6 | 3.2 | 0.00 | 1.27 | 0.00 | 66 | 1011.8 |
| 20260505232522 | 12 | 3 | 1.6 | 4.8 | 0.00 | 1.27 | 0.00 | 66 | 1011.9 |
| 20260505232345 | 12 | 3 | 0.0 | 3.2 | 0.00 | 1.27 | 0.00 | 66 | 1011.9 |
| 20260505231316 | 12 | 3 | 0.0 | 4.8 | 0.00 | 1.27 | 0.00 | 66 | 1012.0 |
| 20260505230816 | 12 | 3 | 1.6 | 3.2 | 0.00 | 1.27 | 0.00 | 66 | 1012.1 |
| 20260505230316 | 12 | 3 | 0.0 | 4.8 | 0.00 | 1.27 | 0.00 | 66 | 1012.1 |
| 20260505225813 | 12 | 3 | 1.6 | 4.8 | 0.00 | 1.27 | 0.00 | 66 | 1012.2 |
| 20260505225311 | 12 | 3 | 3.2 | 6.4 | 0.00 | 1.27 | 0.00 | 66 | 1012.1 |
| 20260505224807 | 12 | 3 | 3.2 | 6.4 | 0.00 | 1.27 | 0.00 | 66 | 1012.1 |
| 20260505224309 | 12 | 1 | 3.2 | 4.8 | 0.00 | 1.27 | 0.00 | 66 | 1012.1 |
| 20260505223810 | 12 | 1 | 3.2 | 4.8 | 0.00 | 1.27 | 0.00 | 66 | 1012.2 |
| 20260505223309 | 12 | 0 | 3.2 | 4.8 | 0.00 | 1.27 | 0.00 | 66 | 1012.2 |
| 20260505223158 | 12 | 4 | 3.2 | 6.4 | 0.00 | 1.27 | 0.00 | 66 | 1012.2 |
| 20260505222855 | 12 | 0 | 3.2 | 4.8 | 0.00 | 1.27 | 0.00 | 66 | 1012.2 |
| 20260505222324 | 12 | 0 | 3.2 | 4.8 | 0.00 | 1.27 | 0.00 | 66 | 1012.2 |
| 20260505221251 | 12 | 0 | 3.2 | 4.8 | 0.03 | 1.27 | 0.00 | 66 | 1012.3 |
| 20260505220749 | 12 | 0 | 3.2 | 4.8 | 0.03 | 1.27 | 0.00 | 66 | 1012.3 |
| 20260505220600 | 12 | 321 | 3.2 | 4.8 | 0.00 | 1.27 | 1.27 | 66 | 1012.2 |
| 20260505220322 | 12 | 0 | 3.2 | 4.8 | 0.03 | 1.27 | 0.00 | 66 | 1012.3 |